Time;durP1;ratioP1;P1;durP2;ratioP2;P2;SDS_P1;SDS_P2;PMS_P1;PMS_P2;Temp;Humidity;BMP_temperature;BMP_pressure;BME280_temperature;BME280_humidity;BME280_pressure;Samples;Min_cycle;Max_cycle;Signal;HPM_P1;HPM_P2
2022/02/25 00:00:08;;;;;;;10.15;1.88;;;;;;;1.53;100.00;100149.88;5050631;28;20036;-77
2022/02/25 00:02:37;;;;;;;14.85;2.72;;;;;;;1.46;100.00;100143.41;5050265;28;20444;-77
2022/02/25 00:05:03;;;;;;;10.27;2.08;;;;;;;1.40;100.00;100143.88;5050353;28;20120;-77
2022/02/25 00:07:28;;;;;;;;;;;;;;;1.43;100.00;100152.38;5035426;28;20041;-77
2022/02/25 00:09:54;;;;;;;10.15;2.20;;;;;;;1.44;100.00;100154.03;5034833;28;19913;-77
2022/02/25 00:12:19;;;;;;;12.33;1.73;;;;;;;1.41;100.00;100142.94;5034757;28;20021;-78
2022/02/25 00:14:44;;;;;;;6.73;1.00;;;;;;;1.42;100.00;100158.56;5051264;28;20041;-77
2022/02/25 00:17:10;;;;;;;6.53;1.17;;;;;;;1.42;100.00;100136.69;5034453;28;20083;-77
2022/02/25 00:19:35;;;;;;;9.40;1.95;;;;;;;1.43;100.00;100152.38;5050536;28;20781;-77
2022/02/25 00:22:01;;;;;;;17.70;2.57;;;;;;;1.40;100.00;100149.13;5051048;28;20123;-77
2022/02/25 00:24:26;;;;;;;13.63;1.47;;;;;;;1.42;100.00;100155.13;5034433;28;20784;-77
2022/02/25 00:26:51;;;;;;;10.50;1.90;;;;;;;1.42;100.00;100166.47;5032226;28;20030;-77
2022/02/25 00:29:17;;;;;;;14.33;2.20;;;;;;;1.40;100.00;100167.53;5034974;28;20327;-77
2022/02/25 00:31:42;;;;;;;15.80;1.60;;;;;;;1.35;100.00;100170.53;5050494;28;20025;-77
2022/02/25 00:34:07;;;;;;;9.38;1.73;;;;;;;1.24;100.00;100167.88;5033126;28;20551;-77
2022/02/25 00:36:33;;;;;;;13.80;1.37;;;;;;;1.16;100.00;100180.78;5050363;28;20045;-77
2022/02/25 00:38:58;;;;;;;12.13;3.72;;;;;;;0.98;100.00;100177.72;5036884;28;20033;-77
2022/02/25 00:41:24;;;;;;;15.45;2.42;;;;;;;0.99;100.00;100182.06;5051250;28;20022;-77
2022/02/25 00:43:49;;;;;;;10.40;1.52;;;;;;;0.93;100.00;100175.44;5052376;28;20033;-77
2022/02/25 00:46:14;;;;;;;6.70;1.80;;;;;;;1.01;100.00;100188.03;5020034;28;20044;-79
2022/02/25 00:48:40;;;;;;;12.75;1.92;;;;;;;0.99;100.00;100195.19;5020563;28;20029;-78
2022/02/25 00:51:05;;;;;;;5.07;1.30;;;;;;;1.06;100.00;100191.16;5052730;28;20045;-77
2022/02/25 00:53:30;;;;;;;6.30;1.33;;;;;;;1.05;100.00;100184.19;5035761;28;20037;-76
2022/02/25 00:55:56;;;;;;;9.80;2.22;;;;;;;1.08;100.00;100205.03;5038157;28;20087;-78
2022/02/25 00:58:21;;;;;;;9.70;1.20;;;;;;;1.04;100.00;100206.19;5053169;28;20453;-77
2022/02/25 01:00:46;;;;;;;5.55;1.65;;;;;;;1.10;100.00;100210.16;5036528;28;20111;-77
2022/02/25 01:03:12;;;;;;;15.93;3.57;;;;;;;1.08;100.00;100196.28;5052446;28;20025;-78
2022/02/25 01:05:38;;;;;;;13.60;2.42;;;;;;;1.13;100.00;100207.31;5036013;28;20097;-78
2022/02/25 01:08:07;;;;;;;7.73;2.67;;;;;;;1.18;100.00;100219.16;5052071;28;20049;-77
2022/02/25 01:10:35;;;;;;;13.15;3.05;;;;;;;1.12;100.00;100210.88;5052520;28;20063;-77
2022/02/25 01:13:01;;;;;;;5.65;2.42;;;;;;;1.07;100.00;100211.22;5053023;28;20063;-78
2022/02/25 01:15:27;;;;;;;14.00;2.70;;;;;;;1.03;100.00;100222.91;5036003;28;20033;-78
2022/02/25 01:17:52;;;;;;;8.07;2.40;;;;;;;1.01;100.00;100209.91;5052482;28;20036;-78
2022/02/25 01:20:17;;;;;;;6.97;2.70;;;;;;;1.07;100.00;100224.38;5035105;28;20244;-78
2022/02/25 01:22:44;;;;;;;8.73;3.07;;;;;;;1.09;100.00;100240.03;5052095;28;20292;-78
2022/02/25 01:25:10;;;;;;;20.98;4.55;;;;;;;1.17;100.00;100262.19;5052371;28;20028;-78
2022/02/25 01:27:36;;;;;;;16.48;3.22;;;;;;;1.21;100.00;100271.50;5050747;28;20038;-77
2022/02/25 01:30:03;;;;;;;12.55;4.85;;;;;;;1.17;100.00;100267.44;5031695;28;20033;-77
2022/02/25 01:32:29;;;;;;;7.53;3.05;;;;;;;1.05;100.00;100252.56;5048388;28;20546;-77
2022/02/25 01:34:55;;;;;;;8.35;3.53;;;;;;;0.97;100.00;100261.03;5031449;28;20044;-77
2022/02/25 01:37:21;;;;;;;9.35;4.15;;;;;;;0.89;100.00;100246.75;5049631;28;20037;-77
2022/02/25 01:39:46;;;;;;;12.47;2.27;;;;;;;0.87;100.00;100244.25;5049842;28;20525;-78
2022/02/25 01:42:11;;;;;;;10.30;2.47;;;;;;;0.92;100.00;100257.06;5035989;28;20280;-78
2022/02/25 01:44:41;;;;;;;16.90;2.30;;;;;;;0.88;100.00;100274.00;5051017;28;20049;-78
2022/02/25 01:47:08;;;;;;;10.65;2.58;;;;;;;0.93;100.00;100287.63;5034587;28;20025;-78
2022/02/25 01:49:35;;;;;;;11.27;3.65;;;;;;;1.02;100.00;100298.31;5018814;28;20584;-78
2022/02/25 01:52:03;;;;;;;8.95;2.90;;;;;;;1.07;100.00;100294.53;5034283;28;20102;-77
2022/02/25 01:54:29;;;;;;;13.00;3.20;;;;;;;1.11;100.00;100303.88;5051740;28;20029;-78
2022/02/25 01:56:55;;;;;;;13.30;2.90;;;;;;;1.11;100.00;100296.81;5035679;28;20029;-78
2022/02/25 01:59:22;;;;;;;14.90;4.57;;;;;;;1.13;100.00;100313.31;5035407;28;20037;-77
2022/02/25 02:01:47;;;;;;;13.30;3.05;;;;;;;1.16;100.00;100297.31;5052355;28;20031;-78
2022/02/25 02:04:13;;;;;;;;;;;;;;;1.22;100.00;100320.53;5052931;28;20068;-78
2022/02/25 02:06:39;;;;;;;18.77;4.85;;;;;;;1.13;100.00;100297.53;5052669;28;19913;-78
2022/02/25 02:09:06;;;;;;;18.88;5.10;;;;;;;1.17;100.00;100309.53;5035945;28;20017;-78
2022/02/25 02:11:36;;;;;;;17.92;4.22;;;;;;;1.18;100.00;100308.56;5052284;28;20037;-78
2022/02/25 02:14:05;;;;;;;23.10;4.50;;;;;;;1.15;100.00;100316.69;5052733;28;20037;-78
2022/02/25 02:16:30;;;;;;;14.35;4.47;;;;;;;1.22;100.00;100322.34;5051976;28;20026;-78
2022/02/25 02:18:56;;;;;;;17.63;3.88;;;;;;;1.20;100.00;100306.66;5051950;28;20038;-78
2022/02/25 02:21:27;;;;;;;12.53;3.20;;;;;;;1.34;100.00;100328.47;5034134;28;20398;-79
2022/02/25 02:23:54;;;;;;;15.18;3.88;;;;;;;1.38;100.00;100314.13;5033572;28;20300;-79
2022/02/25 02:26:20;;;;;;;22.67;4.95;;;;;;;1.31;100.00;100295.34;5032812;28;20021;-79
2022/02/25 02:28:45;;;;;;;16.88;4.53;;;;;;;1.43;100.00;100304.97;5032263;28;20127;-79
2022/02/25 02:31:11;;;;;;;20.55;4.05;;;;;;;1.42;100.00;100300.63;5050351;28;20033;-79
2022/02/25 02:33:37;;;;;;;21.37;2.77;;;;;;;1.44;100.00;100298.72;5050283;28;20032;-78
2022/02/25 02:36:03;;;;;;;22.08;4.68;;;;;;;1.37;100.00;100310.66;5045759;28;20295;-78
2022/02/25 02:38:29;;;;;;;13.13;3.67;;;;;;;1.38;100.00;100304.47;5034152;28;20037;-79
2022/02/25 02:40:55;;;;;;;12.80;3.95;;;;;;;1.39;100.00;100298.25;5050422;28;20099;-78
2022/02/25 02:43:20;;;;;;;15.13;4.13;;;;;;;1.35;100.00;100299.41;5052190;28;20033;-78
2022/02/25 02:45:46;;;;;;;15.00;3.17;;;;;;;1.30;100.00;100298.09;5052419;28;20104;-78
2022/02/25 02:48:11;;;;;;;29.45;4.70;;;;;;;1.34;100.00;100303.00;5035528;28;20022;-78
2022/02/25 02:50:37;;;;;;;13.30;2.67;;;;;;;1.34;100.00;100308.28;5052002;28;20552;-78
2022/02/25 02:53:03;;;;;;;31.02;6.07;;;;;;;1.29;100.00;100301.66;5051343;28;20043;-78
2022/02/25 02:55:28;;;;;;;20.30;3.67;;;;;;;1.30;100.00;100295.47;5034884;28;20123;-78
2022/02/25 02:57:54;;;;;;;8.97;2.87;;;;;;;1.30;100.00;100279.69;5050977;28;20041;-78
2022/02/25 03:00:19;;;;;;;21.50;3.45;;;;;;;1.30;100.00;100277.88;5033291;28;20036;-77
2022/02/25 03:02:45;;;;;;;13.20;3.20;;;;;;;1.35;100.00;100277.53;5033435;28;20389;-77
2022/02/25 03:05:11;;;;;;;12.70;4.47;;;;;;;1.40;100.00;100273.59;5050179;28;20042;-77
2022/02/25 03:07:37;;;;;;;21.20;3.42;;;;;;;1.43;100.00;100283.91;5034214;28;20307;-77
2022/02/25 03:10:05;;;;;;;14.05;2.40;;;;;;;1.45;100.00;100260.97;5034288;28;20030;-77
2022/02/25 03:12:31;;;;;;;11.32;3.30;;;;;;;1.48;100.00;100275.66;5034127;28;20065;-77
2022/02/25 03:14:57;;;;;;;13.75;2.92;;;;;;;1.48;100.00;100263.34;5033241;28;20041;-78
2022/02/25 03:17:23;;;;;;;14.75;4.15;;;;;;;1.46;100.00;100265.25;5049987;28;20342;-78
2022/02/25 03:19:48;;;;;;;12.13;2.95;;;;;;;1.48;100.00;100260.72;5049813;28;20029;-78
2022/02/25 03:22:13;;;;;;;14.13;3.30;;;;;;;1.46;100.00;100272.31;5050158;28;20039;-78
2022/02/25 03:24:55;;;;;;;12.32;3.20;;;;;;;1.48;100.00;100273.88;5035319;28;20033;-77
2022/02/25 03:27:21;;;;;;;13.57;3.05;;;;;;;1.51;100.00;100267.53;5050356;28;20514;-78
2022/02/25 03:29:46;;;;;;;13.70;3.40;;;;;;;1.51;100.00;100264.06;5049645;28;20056;-77
2022/02/25 03:32:11;;;;;;;16.13;3.33;;;;;;;1.51;100.00;100259.66;5049759;28;20053;-77
2022/02/25 03:34:38;;;;;;;12.40;3.35;;;;;;;1.47;100.00;100268.72;5048677;28;20048;-78
2022/02/25 03:37:04;;;;;;;10.15;3.65;;;;;;;1.55;100.00;100279.50;5049900;28;20045;-77
2022/02/25 03:39:29;;;;;;;;;;;;;;;1.56;100.00;100283.81;5050423;28;20025;-79
2022/02/25 03:41:55;;;;;;;21.65;4.47;;;;;;;1.53;100.00;100284.06;5032370;28;20408;-79
2022/02/25 03:44:20;;;;;;;14.48;3.30;;;;;;;1.50;100.00;100283.44;5049169;28;20029;-78
2022/02/25 03:46:47;;;;;;;18.27;3.90;;;;;;;1.47;100.00;100293.25;5049905;28;20049;-78
2022/02/25 03:49:12;;;;;;;21.67;4.25;;;;;;;1.37;100.00;100289.63;5033720;28;20064;-78
2022/02/25 03:51:38;;;;;;;22.17;5.97;;;;;;;1.32;100.00;100291.75;5049349;28;20037;-78
2022/02/25 03:54:03;;;;;;;14.60;4.43;;;;;;;1.36;100.00;100310.75;5031749;28;20106;-78
2022/02/25 03:56:28;;;;;;;16.08;3.92;;;;;;;1.43;100.00;100314.66;5046651;28;20551;-78
2022/02/25 03:58:54;;;;;;;16.52;4.65;;;;;;;1.33;100.00;100324.16;5046561;28;20037;-78
2022/02/25 04:01:19;;;;;;;19.02;4.05;;;;;;;1.27;100.00;100315.78;5046507;28;20017;-78
2022/02/25 04:03:45;;;;;;;9.43;4.13;;;;;;;1.33;100.00;100332.88;5042571;28;20034;-78
2022/02/25 04:06:10;;;;;;;23.53;3.93;;;;;;;1.26;100.00;100319.38;4974413;28;20367;-79
2022/02/25 04:08:35;;;;;;;13.93;4.27;;;;;;;1.29;100.00;100325.31;4974214;28;20282;-79
2022/02/25 04:11:01;;;;;;;20.80;4.32;;;;;;;1.34;100.00;100323.22;4990613;28;20331;-79
2022/02/25 04:13:26;;;;;;;7.95;3.75;;;;;;;1.28;100.00;100324.50;4991252;28;20117;-78
2022/02/25 04:15:52;;;;;;;16.95;5.25;;;;;;;1.28;100.00;100327.13;4993823;28;20026;-79
2022/02/25 04:18:17;;;;;;;21.95;4.40;;;;;;;1.34;100.00;100349.53;4994418;28;20054;-78
2022/02/25 04:20:43;;;;;;;14.10;3.63;;;;;;;1.44;100.00;100358.41;4977853;28;20029;-78
2022/02/25 04:23:08;;;;;;;16.10;4.50;;;;;;;1.54;100.00;100356.75;4994438;28;20034;-78
2022/02/25 04:25:34;;;;;;;11.13;3.28;;;;;;;1.56;100.00;100367.19;4977828;28;20033;-79
2022/02/25 04:27:59;;;;;;;16.33;5.30;;;;;;;1.55;100.00;100366.34;4978134;28;20176;-78
2022/02/25 04:30:26;;;;;;;18.93;6.57;;;;;;;1.62;100.00;100372.81;4977587;28;20399;-79
2022/02/25 04:32:51;;;;;;;15.18;4.07;;;;;;;1.67;100.00;100370.69;4977876;28;20038;-79
2022/02/25 04:35:17;;;;;;;8.02;3.03;;;;;;;1.68;100.00;100374.97;4977689;28;20196;-80
2022/02/25 04:37:42;;;;;;;30.20;4.97;;;;;;;1.66;100.00;100363.75;4977900;28;20038;-79
2022/02/25 04:40:09;;;;;;;15.15;3.83;;;;;;;1.71;100.00;100370.44;4993692;28;20037;-79
2022/02/25 04:42:34;;;;;;;17.52;4.50;;;;;;;1.72;100.00;100372.97;4977850;28;20074;-80
2022/02/25 04:45:00;;;;;;;15.07;5.28;;;;;;;1.73;100.00;100363.28;4994409;28;20105;-80
2022/02/25 04:47:25;;;;;;;27.35;6.57;;;;;;;1.79;100.00;100349.66;4977971;28;20108;-79
2022/02/25 04:49:51;;;;;;;17.20;3.70;;;;;;;1.79;100.00;100352.31;4977411;28;20042;-78
2022/02/25 04:52:17;;;;;;;28.38;5.93;;;;;;;1.79;100.00;100341.78;4977385;28;20904;-78
2022/02/25 04:54:44;;;;;;;14.18;3.90;;;;;;;1.78;100.00;100345.34;4994034;28;20072;-78
2022/02/25 04:57:09;;;;;;;;;;;;;;;1.71;100.00;100354.66;4994432;28;20030;-78
2022/02/25 04:59:35;;;;;;;10.02;3.47;;;;;;;1.65;100.00;100346.28;5026896;28;20346;-79
2022/02/25 05:02:00;;;;;;;8.18;2.85;;;;;;;1.57;100.00;100334.63;4977505;28;20031;-78
2022/02/25 05:04:25;;;;;;;17.80;3.27;;;;;;;1.62;100.00;100345.69;4977408;28;20022;-79
2022/02/25 05:06:51;;;;;;;17.45;3.78;;;;;;;1.55;100.00;100360.25;4977302;28;20069;-79
2022/02/25 05:09:16;;;;;;;11.38;3.88;;;;;;;1.59;100.00;100364.31;4992946;28;20026;-79
2022/02/25 05:11:42;;;;;;;15.23;3.33;;;;;;;1.60;100.00;100371.28;4993514;28;20117;-77
2022/02/25 05:20:15;;;;;;;16.38;4.50;;;;;;;1.54;100.00;100363.81;4976889;28;20044;-78
2022/02/25 05:22:23;;;;;;;15.05;4.10;;;;;;;1.25;100.00;100351.03;5000347;28;20038;-80
2022/02/25 05:24:49;;;;;;;11.45;3.97;;;;;;;1.22;100.00;100354.72;4977227;28;20030;-78
2022/02/25 05:27:14;;;;;;;23.27;5.53;;;;;;;1.26;100.00;100364.06;4976548;28;20038;-80
2022/02/25 05:29:39;;;;;;;16.73;3.93;;;;;;;1.34;100.00;100388.97;4993224;28;20277;-79
2022/02/25 05:32:05;;;;;;;18.47;5.17;;;;;;;1.38;100.00;100379.88;4977337;28;20038;-80
2022/02/25 05:34:30;;;;;;;20.63;4.80;;;;;;;1.41;100.00;100369.16;4977283;28;20034;-79
2022/02/25 05:36:56;;;;;;;16.67;5.77;;;;;;;1.38;100.00;100364.97;4977369;28;20447;-81
2022/02/25 05:39:21;;;;;;;21.90;5.27;;;;;;;1.52;100.00;100392.88;4976858;28;20288;-77
2022/02/25 05:41:46;;;;;;;17.57;4.03;;;;;;;1.57;100.00;100393.38;4977077;28;20061;-80
2022/02/25 05:44:12;;;;;;;18.00;4.57;;;;;;;1.53;100.00;100391.94;4976853;28;20034;-78
2022/02/25 05:46:38;;;;;;;17.05;3.75;;;;;;;1.64;100.00;100383.25;4977105;28;20065;-78
2022/02/25 05:49:03;;;;;;;18.83;3.93;;;;;;;1.62;100.00;100396.50;4976686;28;20506;-78
2022/02/25 05:51:29;;;;;;;15.70;4.43;;;;;;;1.67;100.00;100404.91;5009683;28;20403;-79
2022/02/25 05:53:54;;;;;;;26.90;4.43;;;;;;;1.64;100.00;100391.16;4976495;28;20128;-79
2022/02/25 05:56:19;;;;;;;14.47;3.27;;;;;;;1.60;100.00;100387.88;4977099;28;20042;-78
2022/02/25 05:58:45;;;;;;;16.30;3.93;;;;;;;1.59;100.00;100399.38;4976654;28;20270;-79
2022/02/25 06:01:10;;;;;;;19.03;3.27;;;;;;;1.61;100.00;100394.81;4976946;28;20033;-79
2022/02/25 06:03:35;;;;;;;14.47;3.27;;;;;;;1.62;100.00;100374.63;4993053;28;20038;-80
2022/02/25 06:06:01;;;;;;;13.20;4.43;;;;;;;1.61;100.00;100380.81;4976673;28;20292;-79
2022/02/25 06:08:26;;;;;;;12.80;2.90;;;;;;;1.66;100.00;100374.28;4992824;28;20049;-79
2022/02/25 06:10:52;;;;;;;17.40;3.55;;;;;;;1.69;100.00;100392.47;4996178;28;20026;-77
2022/02/25 06:13:17;;;;;;;13.07;3.30;;;;;;;1.72;100.00;100378.25;5011330;28;20597;-78
2022/02/25 06:15:43;;;;;;;15.13;3.67;;;;;;;1.69;100.00;100384.56;5027334;28;20272;-79
2022/02/25 06:18:09;;;;;;;13.68;2.67;;;;;;;1.67;100.00;100386.47;5024001;28;20117;-78
2022/02/25 06:20:34;;;;;;;7.88;2.03;;;;;;;1.68;100.00;100390.78;5035684;28;20033;-78
2022/02/25 06:22:59;;;;;;;17.13;2.97;;;;;;;1.69;100.00;100397.72;5029848;28;20076;-80
2022/02/25 06:25:26;;;;;;;13.70;2.90;;;;;;;1.51;100.00;100364.88;5029749;28;20801;-79
2022/02/25 06:27:51;;;;;;;16.48;3.22;;;;;;;1.68;100.00;100390.78;5029624;28;20277;-80
2022/02/25 06:30:17;;;;;;;21.27;2.90;;;;;;;1.69;100.00;100395.09;5028582;28;20034;-78
2022/02/25 06:32:43;;;;;;;22.00;4.00;;;;;;;1.72;100.00;100393.19;5028963;28;20413;-79
2022/02/25 06:35:09;;;;;;;21.65;3.80;;;;;;;1.76;100.00;100403.38;5012933;28;20056;-80
2022/02/25 06:37:35;;;;;;;15.30;2.85;;;;;;;1.82;100.00;100404.72;5029331;28;20029;-80
2022/02/25 06:40:00;;;;;;;11.27;2.80;;;;;;;1.91;100.00;100406.66;5012359;28;20048;-78
2022/02/25 06:42:26;;;;;;;12.80;3.20;;;;;;;2.04;100.00;100402.16;5029156;28;20096;-79
2022/02/25 06:44:51;;;;;;;12.52;2.55;;;;;;;2.15;100.00;100384.69;5011803;28;20038;-79
2022/02/25 06:47:18;;;;;;;14.52;4.28;;;;;;;2.01;100.00;100381.31;5014290;28;20096;-79
2022/02/25 06:49:44;;;;;;;14.73;2.70;;;;;;;2.03;100.00;100382.03;5011912;28;20041;-78
2022/02/25 06:52:10;;;;;;;18.27;3.95;;;;;;;2.04;100.00;100377.63;5013265;28;20025;-78
2022/02/25 06:54:36;;;;;;;25.60;3.92;;;;;;;2.00;100.00;100371.75;5028756;28;20045;-78
2022/02/25 06:57:02;;;;;;;16.90;5.03;;;;;;;2.03;100.00;100374.13;5028501;28;20057;-78
2022/02/25 06:59:27;;;;;;;15.93;3.55;;;;;;;2.02;100.00;100369.81;5011594;28;20037;-78
2022/02/25 07:01:52;;;;;;;16.90;2.67;;;;;;;2.13;100.00;100361.13;5028289;28;20197;-78
2022/02/25 07:04:18;;;;;;;10.20;2.40;;;;;;;2.13;100.00;100355.84;5028140;28;20081;-78
2022/02/25 07:06:43;;;;;;;18.67;3.20;;;;;;;2.14;100.00;100346.97;5028243;28;20026;-79
2022/02/25 07:09:08;;;;;;;19.03;2.83;;;;;;;2.18;100.00;100353.69;5028430;28;20041;-78
2022/02/25 07:11:34;;;;;;;13.07;2.90;;;;;;;2.19;100.00;100363.25;5028694;28;20033;-78
2022/02/25 07:14:00;;;;;;;10.73;2.63;;;;;;;2.23;100.00;100351.53;5028184;28;21091;-79
2022/02/25 07:16:25;;;;;;;24.30;4.13;;;;;;;2.14;100.00;100336.44;4994872;28;20037;-78
2022/02/25 07:18:51;;;;;;;9.90;4.20;;;;;;;2.18;100.00;100343.16;5027314;28;20034;-78
2022/02/25 07:21:16;;;;;;;11.67;2.10;;;;;;;2.09;100.00;100325.44;5010927;28;20030;-78
2022/02/25 07:23:41;;;;;;;15.73;2.88;;;;;;;2.15;100.00;100342.53;5026851;28;20750;-79
2022/02/25 07:26:08;;;;;;;25.65;3.25;;;;;;;2.17;100.00;100328.31;5028531;28;20094;-79
2022/02/25 07:28:34;;;;;;;13.98;3.58;;;;;;;2.21;100.00;100332.38;5028145;28;20091;-79
2022/02/25 07:30:59;;;;;;;22.17;4.32;;;;;;;2.20;100.00;100345.66;5029050;28;20038;-79
2022/02/25 07:33:25;;;;;;;13.77;2.65;;;;;;;2.30;100.00;100325.56;5014670;28;20037;-79
2022/02/25 07:35:50;;;;;;;15.60;3.35;;;;;;;2.41;100.00;100336.13;5017725;28;20034;-78
2022/02/25 07:38:16;;;;;;;8.45;3.55;;;;;;;2.48;100.00;100333.81;5030925;28;20038;-79
2022/02/25 07:40:41;;;;;;;18.70;3.10;;;;;;;2.71;100.00;100335.47;5027786;28;20088;-79
2022/02/25 07:43:07;;;;;;;24.05;3.92;;;;;;;2.75;100.00;100334.28;5027885;28;20038;-80
2022/02/25 07:45:34;;;;;;;9.30;3.08;;;;;;;2.68;100.00;100330.44;5028303;28;20026;-78
2022/02/25 07:48:00;;;;;;;17.42;3.42;;;;;;;3.03;100.00;100328.59;5028497;28;20034;-80
2022/02/25 07:50:26;;;;;;;15.65;3.45;;;;;;;2.98;100.00;100320.22;5030987;28;20029;-80
2022/02/25 07:52:52;;;;;;;10.15;3.10;;;;;;;3.35;100.00;100300.41;4998668;28;20394;-80
2022/02/25 07:55:18;;;;;;;15.00;4.78;;;;;;;3.38;100.00;100296.69;5031637;28;20124;-80
2022/02/25 07:57:44;;;;;;;11.85;2.20;;;;;;;3.63;100.00;100302.53;5015315;28;20044;-79
2022/02/25 08:00:10;;;;;;;16.93;3.47;;;;;;;3.75;100.00;100294.44;5031615;28;20384;-80
2022/02/25 08:02:39;;;;;;;17.05;4.43;;;;;;;3.62;100.00;100295.59;5031347;28;20034;-80
2022/02/25 08:05:05;;;;;;;16.10;3.17;;;;;;;3.37;100.00;100279.16;5032272;28;20586;-80
2022/02/25 08:07:32;;;;;;;16.08;3.45;;;;;;;3.11;100.00;100269.00;5032194;28;20038;-81
2022/02/25 08:09:58;;;;;;;13.32;2.65;;;;;;;3.21;100.00;100286.66;5032155;28;20040;-79
2022/02/25 08:12:24;;;;;;;11.98;2.72;;;;;;;3.33;100.00;100310.25;5031926;28;20038;-79
2022/02/25 08:14:49;;;;;;;15.00;2.87;;;;;;;3.29;100.00;100308.81;5031453;28;20076;-81
2022/02/25 08:17:15;;;;;;;8.13;2.20;;;;;;;3.23;100.00;100309.34;5017296;28;20750;-81
2022/02/25 08:19:40;;;;;;;18.77;2.70;;;;;;;3.02;100.00;100296.13;5031358;28;20037;-81
2022/02/25 08:22:06;;;;;;;16.60;3.35;;;;;;;2.82;100.00;100321.44;5015296;28;20041;-80
2022/02/25 08:24:31;;;;;;;16.20;3.27;;;;;;;2.81;100.00;100346.16;5031518;28;20030;-80
2022/02/25 08:26:56;;;;;;;12.67;3.57;;;;;;;2.81;100.00;100359.31;5030802;28;20103;-80
2022/02/25 08:29:22;;;;;;;11.83;2.33;;;;;;;2.62;100.00;100364.34;5030490;28;20084;-79
2022/02/25 08:31:51;;;;;;;16.37;4.70;;;;;;;2.53;100.00;100373.84;5031869;28;20038;-80
2022/02/25 08:34:17;;;;;;;14.57;3.95;;;;;;;2.52;100.00;100386.16;5032041;28;20557;-81
2022/02/25 08:36:43;;;;;;;11.02;3.03;;;;;;;2.56;100.00;100420.19;5031791;28;20041;-79
2022/02/25 08:39:08;;;;;;;10.70;2.00;;;;;;;2.53;100.00;100416.00;5031325;28;20030;-80
2022/02/25 08:41:36;;;;;;;12.57;2.80;;;;;;;2.48;100.00;100403.19;5031806;28;20287;-80
2022/02/25 08:44:01;;;;;;;;;;;;;;;2.62;100.00;100436.38;5032472;28;20041;-81
2022/02/25 08:46:29;;;;;;;7.70;2.13;;;;;;;2.61;100.00;100425.94;5032378;28;19913;-81
2022/02/25 08:48:56;;;;;;;11.57;1.63;;;;;;;2.81;100.00;100446.34;5031391;28;20494;-81
2022/02/25 08:51:21;;;;;;;11.43;1.98;;;;;;;2.89;100.00;100454.47;5031470;28;20088;-77
2022/02/25 08:53:47;;;;;;;12.32;3.35;;;;;;;2.95;100.00;100454.00;5030014;28;20021;-78
2022/02/25 08:56:12;;;;;;;7.70;1.52;;;;;;;2.74;100.00;100453.03;5031390;28;20032;-79
2022/02/25 08:58:38;;;;;;;9.97;4.60;;;;;;;2.67;100.00;100449.19;5030342;28;20532;-78
2022/02/25 09:01:03;;;;;;;14.73;1.50;;;;;;;2.57;100.00;100448.22;5030189;28;20025;-79
2022/02/25 09:03:29;;;;;;;5.93;1.93;;;;;;;2.46;100.00;100442.00;5030386;28;20030;-79
2022/02/25 09:05:54;;;;;;;7.63;2.08;;;;;;;2.45;100.00;100455.28;5030351;28;20292;-79
2022/02/25 09:08:20;;;;;;;13.30;2.00;;;;;;;2.43;100.00;100458.00;5030504;28;20030;-80
2022/02/25 09:10:47;;;;;;;;;;;;;;;2.70;100.00;100467.41;5013943;28;20033;-79
2022/02/25 09:13:13;;;;;;;5.53;1.50;;;;;;;2.59;100.00;100464.75;5029945;28;19909;-80
2022/02/25 09:15:38;;;;;;;9.20;1.90;;;;;;;2.64;100.00;100457.34;5029821;28;20041;-79
2022/02/25 09:18:10;;;;;;;9.35;1.50;;;;;;;2.54;100.00;100465.94;5029745;28;20076;-80
2022/02/25 09:20:37;;;;;;;7.55;2.00;;;;;;;2.49;100.00;100460.19;5029197;28;20037;-80
2022/02/25 09:23:02;;;;;;;6.78;1.38;;;;;;;2.60;100.00;100484.88;5029301;28;20399;-79
2022/02/25 09:25:28;;;;;;;11.70;1.80;;;;;;;2.61;100.00;100481.31;5012603;28;20042;-79
2022/02/25 09:27:54;;;;;;;8.82;2.17;;;;;;;2.51;100.00;100476.72;4996225;28;20032;-79
2022/02/25 09:30:19;;;;;;;6.43;1.77;;;;;;;2.63;100.00;100484.66;5028601;28;20591;-79
2022/02/25 09:32:46;;;;;;;10.35;2.38;;;;;;;2.66;100.00;100481.78;5029130;28;20030;-79
2022/02/25 09:35:12;;;;;;;6.03;1.48;;;;;;;2.69;100.00;100473.63;5028313;28;20037;-79
2022/02/25 09:37:38;;;;;;;9.43;2.00;;;;;;;2.96;100.00;100495.22;5028727;28;20032;-80
2022/02/25 09:40:07;;;;;;;8.00;3.03;;;;;;;2.63;100.00;100453.88;5028293;28;20033;-80
2022/02/25 09:42:38;;;;;;;4.47;1.60;;;;;;;2.64;100.00;100465.25;5028790;28;20116;-80
2022/02/25 09:45:05;;;;;;;6.65;1.85;;;;;;;2.57;100.00;100461.41;5028591;28;20554;-79
2022/02/25 09:47:31;;;;;;;15.02;2.72;;;;;;;2.51;100.00;100460.09;5013657;28;20049;-79
2022/02/25 09:49:56;;;;;;;14.52;2.75;;;;;;;2.46;100.00;100457.81;5028407;28;20483;-80
2022/02/25 09:52:22;;;;;;;4.67;2.20;;;;;;;2.22;100.00;100455.22;5029142;28;20045;-79
2022/02/25 09:54:48;;;;;;;;;;;;;;;2.09;100.00;100476.38;5029137;28;20128;-81
2022/02/25 09:57:13;;;;;;;8.40;2.72;;;;;;;1.82;100.00;100467.88;5028519;28;19947;-79
2022/02/25 09:59:39;;;;;;;13.68;3.20;;;;;;;1.78;100.00;100482.22;5027856;28;20033;-78
2022/02/25 10:02:06;;;;;;;12.20;3.57;;;;;;;1.57;100.00;100482.84;5012233;28;20578;-78
2022/02/25 10:04:33;;;;;;;10.13;3.28;;;;;;;1.59;100.00;100501.16;4995379;28;20356;-78
2022/02/25 10:06:59;;;;;;;17.23;3.25;;;;;;;1.57;100.00;100516.19;5028359;28;20033;-77
2022/02/25 10:09:29;;;;;;;;;;;;;;;1.65;100.00;100540.19;5011332;28;20073;-78
2022/02/25 10:12:00;;;;;;;9.50;3.50;;;;;;;1.76;100.00;100539.44;4994497;28;19917;-79
2022/02/25 10:14:31;;;;;;;16.00;3.63;;;;;;;2.00;100.00;100555.22;5028014;28;20384;-79
2022/02/25 10:17:17;;;;;;;11.40;3.25;;;;;;;2.15;100.00;100553.25;5029614;28;20034;-82
2022/02/25 10:19:45;;;;;;;13.07;2.88;;;;;;;2.22;100.00;100555.31;5028379;28;20144;-80
2022/02/25 10:22:25;;;;;;;15.95;3.40;;;;;;;2.17;100.00;100564.53;5028800;28;20024;-80
2022/02/25 10:24:53;;;;;;;6.43;2.65;;;;;;;2.35;100.00;100581.59;5028419;28;20057;-80
2022/02/25 10:27:40;;;;;;;9.23;2.20;;;;;;;2.56;100.00;100583.59;5028848;28;20056;-80
2022/02/25 10:30:13;;;;;;;8.20;2.55;;;;;;;2.65;100.00;100582.91;5011120;28;20042;-80
2022/02/25 10:32:49;;;;;;;8.85;2.15;;;;;;;2.80;100.00;100589.66;5028821;28;20140;-79
2022/02/25 10:35:25;;;;;;;5.45;1.85;;;;;;;2.85;100.00;100576.13;5023774;28;20041;-78
2022/02/25 10:37:56;;;;;;;3.50;1.30;;;;;;;2.82;100.00;100573.72;5031738;28;20061;-79
2022/02/25 10:40:23;;;;;;;2.80;1.48;;;;;;;2.59;100.00;100560.47;5030465;28;20080;-78
2022/02/25 10:42:48;;;;;;;6.88;1.67;;;;;;;2.67;100.00;100562.53;5014420;28;20030;-79
2022/02/25 10:45:30;;;;;;;6.00;1.33;;;;;;;2.68;100.00;100566.84;5024615;28;20456;-78
2022/02/25 10:48:14;;;;;;;7.38;1.60;;;;;;;3.01;100.00;100575.78;4992355;28;20034;-78
2022/02/25 10:50:48;;;;;;;5.05;1.70;;;;;;;3.01;100.00;100565.25;5008291;28;20070;-78
2022/02/25 10:53:16;;;;;;;4.85;2.08;;;;;;;2.73;100.00;100539.19;4993371;28;20074;-79
2022/02/25 10:55:42;;;;;;;7.93;2.67;;;;;;;2.46;100.00;100543.94;5007974;28;20080;-79
2022/02/25 10:58:08;;;;;;;5.60;2.42;;;;;;;2.34;100.00;100540.38;5025147;28;20038;-78
2022/02/25 11:00:33;;;;;;;5.13;1.40;;;;;;;2.26;100.00;100535.69;5028007;28;20014;-78
2022/02/25 11:02:59;;;;;;;6.97;2.67;;;;;;;2.22;100.00;100534.25;5027867;28;20545;-78
2022/02/25 11:05:35;;;;;;;5.30;1.60;;;;;;;2.18;100.00;100543.34;5011213;28;20272;-78
2022/02/25 11:08:02;;;;;;;;;;;;;;;2.25;100.00;100554.28;5027800;28;20069;-79
2022/02/25 11:10:30;;;;;;;4.97;2.20;;;;;;;2.17;100.00;100552.19;5027040;28;19909;-78
2022/02/25 11:12:58;;;;;;;6.53;2.47;;;;;;;2.19;100.00;100581.06;5027319;28;20065;-78
2022/02/25 11:15:29;;;;;;;11.52;3.72;;;;;;;2.34;100.00;100603.63;4995131;28;20026;-77
2022/02/25 11:17:55;;;;;;;6.53;1.80;;;;;;;2.27;100.00;100573.41;4994873;28;20038;-76
2022/02/25 11:20:24;;;;;;;9.93;2.22;;;;;;;2.73;100.00;100606.88;5027031;28;20041;-76
2022/02/25 11:23:05;;;;;;;8.90;1.95;;;;;;;2.72;100.00;100602.59;5027857;28;20038;-80